Time;durP1;ratioP1;P1;durP2;ratioP2;P2;SDS_P1;SDS_P2;PMS_P1;PMS_P2;Temp;Humidity;BMP_temperature;BMP_pressure;BME280_temperature;BME280_humidity;BME280_pressure;Samples;Min_cycle;Max_cycle;Signal;HPM_P1;HPM_P2
2021/09/01 00:00:41;;;;;;;;;3.00;1.67;;;;;18.27;61.30;98289.63;6137768;22;102672;-84
2021/09/01 00:03:09;;;;;;;;;2.00;1.33;;;;;18.28;61.38;98290.44;6081794;22;104082;-84
2021/09/01 00:05:36;;;;;;;;;1.67;1.00;;;;;18.28;61.67;98284.97;6115674;22;102395;-84
2021/09/01 00:08:03;;;;;;;;;0.67;0.67;;;;;18.28;61.33;98284.97;6087718;22;102818;-84
2021/09/01 00:10:35;;;;;;;;;1.00;1.00;;;;;18.27;61.76;98286.88;6095209;22;102334;-83
2021/09/01 00:13:09;;;;;;;;;1.00;1.00;;;;;18.28;61.76;98291.25;6128226;22;108314;-83
2021/09/01 00:15:47;;;;;;;;;2.00;2.00;;;;;18.28;61.27;98291.25;6131668;22;102122;-83
2021/09/01 00:18:19;;;;;;;;;1.00;1.00;;;;;18.28;61.16;98295.91;6134546;22;103928;-83
2021/09/01 00:20:55;;;;;;;;;1.33;1.00;;;;;18.28;61.86;98290.44;6124096;22;102702;-83
2021/09/01 00:23:29;;;;;;;;;1.33;1.33;;;;;18.25;61.94;98288.22;6130579;22;103282;-83
2021/09/01 00:26:05;;;;;;;;;1.00;1.00;;;;;18.25;61.42;98290.94;6124089;22;102133;-84
2021/09/01 00:28:38;;;;;;;;;2.33;1.33;;;;;18.23;61.61;98293.97;6112850;22;102456;-83
2021/09/01 00:31:12;;;;;;;;;1.00;1.00;;;;;18.23;61.53;98288.47;6122452;22;102424;-84
2021/09/01 00:33:48;;;;;;;;;1.33;1.00;;;;;18.25;61.64;98296.41;6115861;22;103624;-83
2021/09/01 00:36:24;;;;;;;;;1.00;0.00;;;;;18.26;61.34;98303.56;6099213;22;102432;-83
2021/09/01 00:39:00;;;;;;;;;1.00;1.00;;;;;18.27;61.02;98307.94;6123097;22;102460;-84
2021/09/01 00:41:31;;;;;;;;;2.00;1.33;;;;;18.26;61.24;98309.03;6133474;22;102223;-84
2021/09/01 00:44:27;;;;;;;;;1.00;0.67;;;;;18.25;61.31;98323.78;6123335;22;108750;-84
2021/09/01 00:46:55;;;;;;;;;1.00;1.00;;;;;18.25;61.06;98308.19;6047878;22;102226;-84
2021/09/01 00:49:23;;;;;;;;;1.00;1.00;;;;;18.24;60.94;98311.19;6133072;22;104268;-84
2021/09/01 00:51:50;;;;;;;;;1.00;1.00;;;;;18.25;61.15;98312.84;6123141;22;102491;-83
2021/09/01 00:54:18;;;;;;;;;0.67;0.67;;;;;18.22;61.65;98319.66;6135621;22;104071;-84
2021/09/01 00:56:50;;;;;;;;;0.00;0.00;;;;;18.22;61.24;98316.94;6130312;22;102113;-84
2021/09/01 00:59:18;;;;;;;;;1.00;1.00;;;;;18.21;61.30;98317.19;6117368;22;102451;-84
2021/09/01 01:01:48;;;;;;;;;1.00;1.00;;;;;18.20;61.37;98315.50;6062951;22;102435;-84
2021/09/01 01:04:16;;;;;;;;;1.00;1.00;;;;;18.20;61.35;98327.28;6105561;22;104195;-84
2021/09/01 01:06:45;;;;;;;;;0.00;0.00;;;;;18.21;61.82;98318.00;6092422;22;102224;-84
2021/09/01 01:09:13;;;;;;;;;0.00;0.00;;;;;18.23;61.15;98317.75;6132329;22;102111;-84
2021/09/01 01:12:11;;;;;;;;;1.33;1.00;;;;;18.22;61.84;98327.03;6113844;22;104834;-84
2021/09/01 01:14:48;;;;;;;;;1.00;1.00;;;;;18.22;61.07;98327.88;6076599;22;104100;-84
2021/09/01 01:17:25;;;;;;;;;1.00;1.00;;;;;18.20;61.55;98326.47;6037604;22;104328;-84
2021/09/01 01:20:04;;;;;;;;;2.00;1.00;;;;;18.16;61.70;98330.81;6120750;22;104453;-84
2021/09/01 01:22:39;;;;;;;;;1.00;1.00;;;;;18.19;61.57;98338.50;6115553;22;102235;-84
2021/09/01 01:25:29;;;;;;;;;1.00;1.00;;;;;18.18;61.76;98331.38;6135948;22;108257;-84
2021/09/01 01:28:05;;;;;;;;;2.00;1.33;;;;;18.18;61.59;98331.38;6037267;22;103868;-84
2021/09/01 01:30:46;;;;;;;;;2.00;1.00;;;;;18.18;61.01;98334.13;6128821;22;104174;-83
2021/09/01 01:33:23;;;;;;;;;1.67;1.00;;;;;18.18;61.54;98339.59;6031569;22;102116;-83
2021/09/01 01:35:55;;;;;;;;;1.00;1.00;;;;;18.19;61.08;98341.25;6130623;22;103446;-84
2021/09/01 01:38:31;;;;;;;;;1.67;1.00;;;;;18.19;60.98;98339.31;6133924;22;102583;-84
2021/09/01 01:41:07;;;;;;;;;2.00;2.00;;;;;18.19;61.21;98342.06;6079283;22;104052;-84
2021/09/01 01:43:47;;;;;;;;;1.00;1.00;;;;;18.20;61.09;98342.88;6132381;22;102356;-84
2021/09/01 01:46:27;;;;;;;;;1.00;1.00;;;;;18.20;61.39;98342.88;6021544;22;109200;-84
2021/09/01 01:49:01;;;;;;;;;1.00;1.00;;;;;18.18;61.28;98351.38;6111883;22;102332;-84
2021/09/01 01:51:36;;;;;;;;;4.33;2.33;;;;;18.17;61.25;98348.88;6114674;22;102232;-84
2021/09/01 01:54:07;;;;;;;;;2.00;2.00;;;;;18.17;61.51;98351.63;6140634;22;102166;-84
2021/09/01 01:56:34;;;;;;;;;2.00;2.00;;;;;18.16;61.63;98352.69;6138024;22;104235;-84
2021/09/01 01:59:02;;;;;;;;;1.00;1.00;;;;;18.14;61.82;98349.41;6145910;22;102379;-84
2021/09/01 02:01:29;;;;;;;;;2.00;2.00;;;;;18.13;61.72;98353.22;6142893;22;102725;-84
2021/09/01 02:03:56;;;;;;;;;3.33;2.00;;;;;18.12;61.78;98354.28;6135506;22;102549;-84
2021/09/01 02:06:23;;;;;;;;;2.00;2.00;;;;;18.15;61.46;98354.59;6140434;22;104745;-84
2021/09/01 02:08:51;;;;;;;;;2.00;1.00;;;;;18.15;61.05;98356.50;6118787;22;102158;-84
2021/09/01 02:11:18;;;;;;;;;2.00;2.00;;;;;18.16;61.36;98347.22;6138770;22;102385;-84
2021/09/01 02:13:45;;;;;;;;;1.67;1.67;;;;;18.15;61.74;98351.88;6145999;22;102815;-84
2021/09/01 02:16:12;;;;;;;;;2.00;2.00;;;;;18.14;61.35;98350.22;6142553;22;103984;-84
2021/09/01 02:18:39;;;;;;;;;1.00;1.00;;;;;18.15;61.14;98354.59;6133947;22;102639;-84
2021/09/01 02:21:06;;;;;;;;;3.00;3.00;;;;;18.13;61.08;98359.53;6138757;22;102241;-84
2021/09/01 02:23:34;;;;;;;;;2.00;2.00;;;;;18.13;61.36;98355.94;6145162;22;102481;-84
2021/09/01 02:26:02;;;;;;;;;1.00;0.00;;;;;18.10;61.78;98354.53;6136231;22;103019;-84
2021/09/01 02:28:29;;;;;;;;;3.00;2.67;;;;;18.10;61.63;98353.72;6142909;22;102143;-84
2021/09/01 02:30:56;;;;;;;;;2.33;2.33;;;;;18.09;61.39;98354.81;6117719;22;102264;-84
2021/09/01 02:33:23;;;;;;;;;2.00;2.00;;;;;18.06;61.78;98364.34;6143648;22;102144;-84
2021/09/01 02:35:50;;;;;;;;;2.00;2.00;;;;;18.08;61.46;98355.88;6142440;22;104278;-83
2021/09/01 02:38:17;;;;;;;;;3.00;3.00;;;;;18.10;61.44;98362.75;6146456;22;102207;-84
2021/09/01 02:40:45;;;;;;;;;2.00;2.00;;;;;18.12;61.71;98362.50;6135694;22;102263;-84
2021/09/01 02:43:12;;;;;;;;;4.00;3.00;;;;;18.11;61.12;98372.63;6141613;22;102194;-84
2021/09/01 02:45:39;;;;;;;;;3.00;1.00;;;;;18.10;60.79;98376.41;6139737;22;111759;-84
2021/09/01 02:48:06;;;;;;;;;1.67;1.33;;;;;18.10;61.07;98370.16;6135271;22;102460;-84
2021/09/01 02:50:33;;;;;;;;;2.00;2.00;;;;;18.08;61.44;98372.31;6137742;22;102629;-84
2021/09/01 02:53:01;;;;;;;;;2.00;1.67;;;;;18.08;61.40;98367.66;6135212;22;102104;-84
2021/09/01 02:55:28;;;;;;;;;2.00;2.00;;;;;18.07;61.13;98367.91;6132136;22;104015;-84
2021/09/01 02:57:55;;;;;;;;;3.33;2.00;;;;;18.07;61.48;98365.16;6139595;22;102410;-84
2021/09/01 03:00:22;;;;;;;;;4.00;2.00;;;;;18.04;61.64;98368.41;6136167;22;102472;-84
2021/09/01 03:02:49;;;;;;;;;3.00;3.00;;;;;18.04;61.37;98377.47;6142120;22;102429;-84
2021/09/01 03:05:17;;;;;;;;;2.67;1.33;;;;;18.03;61.21;98375.81;6139155;22;104157;-84
2021/09/01 03:07:44;;;;;;;;;1.00;1.00;;;;;18.03;61.13;98389.47;6146532;22;102287;-84
2021/09/01 03:10:11;;;;;;;;;3.00;2.00;;;;;18.04;61.33;98382.94;6135661;22;102455;-84
2021/09/01 03:12:38;;;;;;;;;2.00;2.00;;;;;18.07;61.43;98381.59;6141059;22;102495;-84
2021/09/01 03:15:06;;;;;;;;;2.00;1.00;;;;;18.08;60.93;98383.25;6137646;22;104149;-84
2021/09/01 03:17:33;;;;;;;;;3.00;2.00;;;;;18.08;60.91;98388.72;6090914;22;102353;-84
2021/09/01 03:20:00;;;;;;;;;2.00;2.00;;;;;18.06;60.82;98386.22;6133233;22;101818;-84
2021/09/01 03:22:27;;;;;;;;;1.33;1.33;;;;;18.05;60.98;98390.06;6131638;22;102644;-84
2021/09/01 03:24:54;;;;;;;;;1.00;1.00;;;;;18.05;61.19;98394.72;6135478;22;104166;-84
2021/09/01 03:27:24;;;;;;;;;2.00;2.00;;;;;18.04;60.94;98398.53;6116361;22;102530;-84
2021/09/01 03:29:51;;;;;;;;;2.00;2.00;;;;;18.03;61.50;98396.84;6138573;22;102598;-84
2021/09/01 03:32:18;;;;;;;;;2.00;1.67;;;;;18.01;61.35;98399.03;6135142;22;102449;-84
2021/09/01 03:34:45;;;;;;;;;2.00;1.00;;;;;18.01;61.38;98399.84;6149149;22;103829;-84
2021/09/01 03:37:12;;;;;;;;;2.00;2.00;;;;;17.99;61.06;98402.03;6138543;22;102180;-84
2021/09/01 03:39:40;;;;;;;;;1.00;1.00;;;;;17.98;61.12;98402.25;6141255;22;102268;-84
2021/09/01 03:42:07;;;;;;;;;3.00;2.33;;;;;18.00;61.08;98414.63;6139341;22;102203;-84
2021/09/01 03:44:34;;;;;;;;;2.67;1.67;;;;;18.02;61.59;98411.63;6145712;22;104015;-83
2021/09/01 03:47:02;;;;;;;;;1.00;1.00;;;;;18.04;60.77;98421.25;6143688;22;102381;-84
2021/09/01 03:49:29;;;;;;;;;1.33;1.33;;;;;18.05;60.44;98413.88;6148054;22;102458;-84
2021/09/01 03:51:56;;;;;;;;;1.00;1.00;;;;;18.04;61.21;98420.41;6140170;22;104513;-84
2021/09/01 03:54:23;;;;;;;;;1.00;1.00;;;;;18.01;61.19;98426.41;6132714;22;104330;-84
2021/09/01 03:56:50;;;;;;;;;1.00;1.00;;;;;18.02;60.95;98433.50;6136977;22;102827;-84
2021/09/01 03:59:17;;;;;;;;;0.00;0.00;;;;;18.02;61.28;98438.97;6112373;22;102239;-84
2021/09/01 04:01:45;;;;;;;;;2.00;2.00;;;;;18.00;61.03;98432.94;6141231;22;102525;-84
2021/09/01 04:04:12;;;;;;;;;1.00;1.00;;;;;17.99;60.76;98434.84;6140655;22;108539;-84
2021/09/01 04:06:40;;;;;;;;;2.00;0.00;;;;;17.97;60.73;98431.53;6138204;22;102522;-84
2021/09/01 04:09:07;;;;;;;;;1.67;1.00;;;;;17.97;61.12;98436.16;6142863;22;102282;-84
2021/09/01 04:11:34;;;;;;;;;1.67;1.67;;;;;17.98;60.75;98448.78;6141966;22;102862;-84
2021/09/01 04:14:01;;;;;;;;;1.67;1.00;;;;;17.97;61.03;98425.22;6135383;22;104463;-84
2021/09/01 04:16:28;;;;;;;;;1.67;1.00;;;;;17.97;61.16;98447.94;6136227;22;102441;-84
2021/09/01 04:18:56;;;;;;;;;2.00;2.00;;;;;17.97;61.38;98442.47;6142814;22;102280;-84
2021/09/01 04:21:23;;;;;;;;;2.67;2.00;;;;;17.96;61.35;98446.31;6140004;22;102666;-84
2021/09/01 04:23:50;;;;;;;;;1.00;1.00;;;;;17.97;61.49;98458.06;6142299;22;104236;-84
2021/09/01 04:26:17;;;;;;;;;2.00;2.00;;;;;17.94;60.58;98456.66;6114468;22;102014;-84
2021/09/01 04:28:44;;;;;;;;;2.00;2.00;;;;;17.95;61.40;98460.22;6137326;22;104281;-84
2021/09/01 04:31:11;;;;;;;;;2.00;2.00;;;;;17.94;61.09;98466.78;6139022;22;102424;-84
2021/09/01 04:33:39;;;;;;;;;2.00;2.00;;;;;17.94;61.20;98475.81;6135886;22;104152;-84
2021/09/01 04:36:06;;;;;;;;;2.00;2.00;;;;;17.95;60.91;98479.38;6137876;22;102444;-84
2021/09/01 04:38:33;;;;;;;;;1.67;1.67;;;;;17.93;61.00;98467.84;6126401;22;102378;-84
2021/09/01 04:41:00;;;;;;;;;3.00;3.00;;;;;17.92;61.14;98477.16;6131442;22;103937;-84
2021/09/01 04:43:27;;;;;;;;;2.00;2.00;;;;;17.94;60.91;98475.81;6126519;22;104072;-84
2021/09/01 04:45:55;;;;;;;;;2.00;1.67;;;;;17.95;61.09;98482.94;6135095;22;102472;-84
2021/09/01 04:48:24;;;;;;;;;1.67;1.00;;;;;17.95;61.14;98482.94;6141730;22;102165;-84
2021/09/01 04:50:52;;;;;;;;;3.00;2.00;;;;;17.93;60.60;98479.63;6141141;22;102630;-84
2021/09/01 04:53:20;;;;;;;;;3.00;3.00;;;;;17.95;61.31;98487.59;6146205;22;104124;-84
2021/09/01 04:55:47;;;;;;;;;2.00;2.00;;;;;17.94;61.31;98484.03;6102897;22;102426;-84
2021/09/01 04:58:14;;;;;;;;;2.33;2.00;;;;;17.93;61.22;98490.56;6118146;22;102194;-84
2021/09/01 05:00:42;;;;;;;;;2.00;2.00;;;;;17.93;61.17;98481.53;6145677;22;104876;-84
2021/09/01 05:03:09;;;;;;;;;2.67;2.33;;;;;17.93;61.06;98492.47;6138708;22;104357;-84
2021/09/01 05:05:37;;;;;;;;;1.00;1.00;;;;;17.92;60.80;98499.03;6142307;22;102179;-84
2021/09/01 05:08:04;;;;;;;;;2.00;2.00;;;;;17.93;60.88;98500.66;6136128;22;102185;-84
2021/09/01 05:10:31;;;;;;;;;2.67;2.67;;;;;17.92;60.83;98507.25;6133515;22;102530;-84
2021/09/01 05:12:58;;;;;;;;;2.00;2.00;;;;;17.91;61.13;98498.22;6114562;22;104265;-84
2021/09/01 05:15:26;;;;;;;;;2.00;1.00;;;;;17.92;60.66;98504.50;6128795;22;102584;-84
2021/09/01 05:17:53;;;;;;;;;2.67;2.67;;;;;17.93;60.50;98489.72;6141170;22;102133;-84
2021/09/01 05:20:20;;;;;;;;;4.00;2.67;;;;;17.94;61.31;98502.34;6150115;22;102105;-84
2021/09/01 05:22:47;;;;;;;;;2.33;2.33;;;;;17.93;61.17;98503.41;6112567;22;110318;-84
2021/09/01 05:25:16;;;;;;;;;2.00;2.00;;;;;17.93;60.70;98497.94;6146433;22;102504;-84
2021/09/01 05:27:48;;;;;;;;;2.00;2.00;;;;;17.91;61.43;98498.22;6142194;22;102120;-84
2021/09/01 05:30:17;;;;;;;;;3.00;2.00;;;;;17.88;60.96;98511.56;6132571;22;102592;-84
2021/09/01 05:32:47;;;;;;;;;2.67;2.67;;;;;17.90;61.16;98512.97;6144329;22;104415;-84
2021/09/01 05:35:16;;;;;;;;;2.33;2.00;;;;;17.90;60.95;98510.22;6142212;22;102519;-84
2021/09/01 05:37:43;;;;;;;;;2.33;2.00;;;;;17.88;60.73;98504.16;6138028;22;102074;-84
2021/09/01 05:40:11;;;;;;;;;3.00;3.00;;;;;17.90;60.56;98512.13;6138519;22;102518;-84
2021/09/01 05:42:38;;;;;;;;;2.00;2.00;;;;;17.89;61.37;98510.47;6143398;22;103715;-84
2021/09/01 05:45:06;;;;;;;;;3.00;2.00;;;;;17.91;61.40;98522.81;6107219;22;102665;-84
2021/09/01 05:47:33;;;;;;;;;1.33;1.33;;;;;17.90;60.88;98523.06;6134807;22;102134;-84
2021/09/01 05:50:00;;;;;;;;;2.00;2.00;;;;;17.91;60.58;98530.19;6132599;22;102083;-84
2021/09/01 05:52:27;;;;;;;;;1.00;1.00;;;;;17.92;61.26;98527.19;6107638;22;104409;-84
2021/09/01 05:54:57;;;;;;;;;2.00;1.00;;;;;17.93;61.22;98534.34;6135636;22;102509;-84
2021/09/01 05:57:37;;;;;;;;;1.00;1.00;;;;;17.92;60.59;98531.88;6140890;22;102108;-84
2021/09/01 06:00:13;;;;;;;;;3.00;2.00;;;;;17.90;60.86;98525.81;6098598;22;102313;-84
2021/09/01 06:02:54;;;;;;;;;3.33;2.00;;;;;17.90;60.77;98539.47;6135858;22;104065;-84
2021/09/01 06:05:22;;;;;;;;;1.00;1.00;;;;;17.85;61.15;98537.50;6110948;22;102121;-84
2021/09/01 06:07:53;;;;;;;;;2.00;2.00;;;;;17.87;61.26;98540.81;6114183;22;105463;-84
2021/09/01 06:10:22;;;;;;;;;2.00;2.00;;;;;17.86;61.06;98539.16;6129125;22;102243;-84
2021/09/01 06:12:52;;;;;;;;;1.67;1.67;;;;;17.87;61.11;98545.47;6142783;22;111981;-84
2021/09/01 06:15:20;;;;;;;;;1.00;1.00;;;;;17.87;61.30;98546.28;6139401;22;102304;-84
2021/09/01 06:17:47;;;;;;;;;2.00;2.00;;;;;17.88;60.88;98547.13;6143490;22;102146;-84
2021/09/01 06:20:14;;;;;;;;;2.00;2.00;;;;;17.89;61.30;98555.06;6142136;22;102522;-84
2021/09/01 06:22:41;;;;;;;;;2.00;2.00;;;;;17.91;61.16;98560.28;6133642;22;104048;-84
2021/09/01 06:25:09;;;;;;;;;2.00;1.00;;;;;17.90;60.85;98556.72;6112545;22;102417;-84
2021/09/01 06:27:36;;;;;;;;;2.00;2.00;;;;;17.89;60.80;98552.31;6128259;22;102123;-83
2021/09/01 06:30:04;;;;;;;;;2.33;1.67;;;;;17.90;61.13;98562.19;6109567;22;102332;-84
2021/09/01 06:32:31;;;;;;;;;3.00;3.00;;;;;17.90;60.71;98564.94;6130593;22;104024;-84
2021/09/01 06:34:58;;;;;;;;;3.67;2.00;;;;;17.89;60.97;98567.91;6133243;22;102521;-84
2021/09/01 06:37:26;;;;;;;;;2.00;1.00;;;;;17.87;60.83;98561.88;6137300;22;102035;-84
2021/09/01 06:39:53;;;;;;;;;2.00;2.00;;;;;17.86;60.65;98566.50;6134283;22;102616;-84
2021/09/01 06:42:21;;;;;;;;;1.00;1.00;;;;;17.86;61.46;98566.50;6139346;22;108776;-84
2021/09/01 06:44:48;;;;;;;;;1.00;1.00;;;;;17.87;61.47;98578.28;6135340;22;102157;-84
2021/09/01 06:47:15;;;;;;;;;1.00;1.00;;;;;17.89;61.47;98570.66;6135043;22;102183;-84
2021/09/01 06:49:42;;;;;;;;;1.33;1.00;;;;;17.89;61.57;98565.16;6130302;22;102648;-84
2021/09/01 06:52:09;;;;;;;;;2.00;2.00;;;;;17.91;61.09;98579.44;6138400;22;104207;-84
2021/09/01 06:54:37;;;;;;;;;2.33;2.33;;;;;17.89;60.66;98581.59;6125636;22;110051;-84
2021/09/01 06:57:04;;;;;;;;;2.00;2.00;;;;;17.90;61.36;98591.47;6145323;22;102674;-84
2021/09/01 06:59:31;;;;;;;;;2.00;2.00;;;;;17.89;60.81;98592.53;6140183;22;102553;-84
2021/09/01 07:01:58;;;;;;;;;1.67;1.00;;;;;17.88;60.60;98590.91;6145743;22;103984;-84
2021/09/01 07:04:26;;;;;;;;;3.00;2.67;;;;;17.90;61.38;98602.41;6137144;22;102226;-83
2021/09/01 07:06:53;;;;;;;;;2.00;2.00;;;;;17.89;61.46;98606.22;6130907;22;103812;-84
2021/09/01 07:09:20;;;;;;;;;2.00;1.00;;;;;17.87;61.56;98605.66;6128092;22;102184;-84
2021/09/01 07:11:47;;;;;;;;;3.33;2.00;;;;;17.87;60.66;98602.91;6121199;22;104039;-84
2021/09/01 07:14:14;;;;;;;;;3.00;2.00;;;;;17.88;60.84;98610.03;6131097;22;102336;-84
2021/09/01 07:16:41;;;;;;;;;2.00;2.00;;;;;17.86;61.20;98614.91;6082025;22;102284;-84
2021/09/01 07:19:08;;;;;;;;;1.33;1.33;;;;;17.86;61.15;98615.75;6127802;22;102575;-84
2021/09/01 07:21:36;;;;;;;;;1.67;1.33;;;;;17.87;60.63;98611.94;6145720;22;104636;-84
2021/09/01 07:24:03;;;;;;;;;3.00;2.00;;;;;17.89;60.45;98622.63;6146530;22;102546;-84
2021/09/01 07:26:30;;;;;;;;;1.33;1.33;;;;;17.90;61.46;98627.03;6146467;22;102267;-84
2021/09/01 07:28:58;;;;;;;;;2.33;2.00;;;;;17.90;60.84;98640.69;6153348;22;110462;-84
2021/09/01 07:31:27;;;;;;;;;2.33;2.33;;;;;17.90;60.84;98646.16;6123791;22;108690;-84
2021/09/01 07:33:55;;;;;;;;;2.00;2.00;;;;;17.90;61.09;98648.91;6135626;22;101882;-84
2021/09/01 07:36:22;;;;;;;;;3.00;2.00;;;;;17.89;60.79;98655.44;6138127;22;101860;-84
2021/09/01 07:38:49;;;;;;;;;2.00;2.00;;;;;17.88;60.77;98645.59;6140969;22;102199;-84
2021/09/01 07:41:16;;;;;;;;;4.33;3.67;;;;;17.85;61.05;98630.50;6137140;22;104159;-84
2021/09/01 07:43:43;;;;;;;;;1.33;0.33;;;;;17.86;61.60;98651.31;6143238;22;102523;-84
2021/09/01 07:46:10;;;;;;;;;2.33;2.33;;;;;17.86;61.33;98658.69;6139795;22;102377;-84
2021/09/01 07:48:38;;;;;;;;;1.00;1.00;;;;;17.84;61.20;98650.72;6141596;22;110307;-84
2021/09/01 07:51:05;;;;;;;;;2.00;2.00;;;;;17.86;60.78;98665.00;6144584;22;104117;-84
2021/09/01 07:53:32;;;;;;;;;2.33;2.33;;;;;17.88;61.17;98672.97;6129161;22;102473;-84
2021/09/01 07:55:59;;;;;;;;;2.33;2.00;;;;;17.88;61.01;98667.50;6139149;22;101839;-84
2021/09/01 07:58:27;;;;;;;;;2.00;2.00;;;;;17.89;61.50;98674.59;6140932;22;102143;-84
2021/09/01 08:00:54;;;;;;;;;2.67;1.00;;;;;17.86;60.95;98667.72;6123451;22;111437;-85
2021/09/01 08:03:21;;;;;;;;;3.67;3.00;;;;;17.90;60.88;98679.84;6140154;22;102143;-84
2021/09/01 08:05:48;;;;;;;;;2.00;2.00;;;;;17.90;60.92;98682.56;6133911;22;102379;-84
2021/09/01 08:08:16;;;;;;;;;2.00;2.00;;;;;17.91;61.35;98686.13;6125894;22;102272;-84
2021/09/01 08:10:43;;;;;;;;;3.00;3.00;;;;;17.90;61.34;98689.94;6117234;22;103416;-84
2021/09/01 08:13:10;;;;;;;;;4.00;3.00;;;;;17.89;61.49;98693.75;6126419;22;103319;-84
2021/09/01 08:15:37;;;;;;;;;2.00;2.00;;;;;17.87;61.38;98691.28;6140149;22;102534;-84
2021/09/01 08:18:04;;;;;;;;;3.00;2.00;;;;;17.88;61.54;98700.31;6142202;22;102158;-84
2021/09/01 08:20:32;;;;;;;;;2.33;2.33;;;;;17.89;60.91;98697.31;6135652;22;104060;-84
2021/09/01 08:22:59;;;;;;;;;2.67;2.67;;;;;17.90;61.59;98714.56;6117976;22;102214;-84
2021/09/01 08:25:26;;;;;;;;;3.67;3.00;;;;;17.91;61.00;98721.69;6143099;22;102652;-84
2021/09/01 08:27:53;;;;;;;;;3.00;3.00;;;;;17.93;61.63;98719.53;6141361;22;102537;-84
2021/09/01 08:30:20;;;;;;;;;3.33;2.00;;;;;17.93;61.00;98714.06;6135349;22;103992;-84
2021/09/01 08:32:47;;;;;;;;;3.00;2.00;;;;;17.93;60.69;98720.38;6135592;22;102248;-84
2021/09/01 08:35:14;;;;;;;;;3.33;3.00;;;;;17.93;61.15;98731.31;6140178;22;102216;-84
2021/09/01 08:37:41;;;;;;;;;1.67;1.00;;;;;17.93;61.27;98725.84;6141044;22;102208;-84
2021/09/01 08:40:09;;;;;;;;;5.33;3.00;;;;;17.93;60.85;98725.00;6116395;22;105000;-84
2021/09/01 08:42:36;;;;;;;;;3.00;3.00;;;;;17.94;61.34;98734.88;6117466;22;102317;-84
2021/09/01 08:45:04;;;;;;;;;3.00;3.00;;;;;17.93;61.48;98742.25;6138493;22;102311;-84
2021/09/01 08:47:32;;;;;;;;;2.00;2.00;;;;;17.95;61.11;98755.69;6136340;22;102136;-84
2021/09/01 08:49:59;;;;;;;;;3.00;3.00;;;;;17.95;61.49;98747.50;6117105;22;109097;-84
2021/09/01 08:52:26;;;;;;;;;3.33;2.00;;;;;17.94;61.25;98754.03;6141705;22;102266;-84
2021/09/01 08:54:54;;;;;;;;;2.00;2.00;;;;;17.93;61.31;98750.47;6140217;22;102187;-84
2021/09/01 08:57:21;;;;;;;;;2.00;2.00;;;;;17.96;61.85;98760.94;6142212;22;102661;-85
2021/09/01 08:59:48;;;;;;;;;2.33;2.33;;;;;17.99;61.42;98759.59;6139229;22;104143;-85
2021/09/01 09:02:15;;;;;;;;;2.67;2.67;;;;;17.98;61.80;98760.69;6140483;22;102422;-84
2021/09/01 09:04:42;;;;;;;;;3.00;2.00;;;;;17.99;61.75;98756.88;6130161;22;102294;-84
2021/09/01 09:07:10;;;;;;;;;3.00;3.00;;;;;17.98;61.64;98764.25;6114096;22;102341;-84
2021/09/01 09:09:38;;;;;;;;;3.33;3.33;;;;;17.98;61.63;98758.78;6134833;22;104260;-84
2021/09/01 09:12:06;;;;;;;;;4.00;4.00;;;;;17.98;61.14;98761.50;6146106;22;102586;-84
2021/09/01 09:14:36;;;;;;;;;5.00;4.00;;;;;17.99;61.16;98757.69;6141562;22;102174;-84
2021/09/01 09:17:05;;;;;;;;;3.50;2.00;;;;;18.00;61.49;98766.75;6141158;22;102057;-84
2021/09/01 09:19:55;;;;;;;;;2.33;2.33;;;;;17.99;61.55;98771.38;6125551;22;108634;-84
2021/09/01 09:22:27;;;;;;;;;4.33;4.00;;;;;18.00;61.60;98796.84;6041209;22;102252;-84
2021/09/01 09:25:09;;;;;;;;;3.67;3.67;;;;;18.02;61.65;98778.25;6113436;22;102781;-84
2021/09/01 09:27:59;;;;;;;;;4.33;3.67;;;;;18.03;61.76;98768.97;6102357;22;102589;-84
2021/09/01 09:30:41;;;;;;;;;4.00;4.00;;;;;18.04;61.03;98770.66;6131362;22;108745;-84
2021/09/01 09:33:10;;;;;;;;;4.67;4.00;;;;;18.05;61.21;98777.78;6086907;22;102588;-84
2021/09/01 09:35:57;;;;;;;;;4.00;4.00;;;;;18.03;61.14;98758.03;6115909;22;102319;-84
2021/09/01 09:38:27;;;;;;;;;3.00;3.00;;;;;18.06;61.70;98765.75;6116712;22;102424;-85
2021/09/01 09:40:55;;;;;;;;;4.33;4.00;;;;;18.06;61.38;98763.84;6120132;22;104056;-85
2021/09/01 09:43:23;;;;;;;;;4.33;4.00;;;;;18.07;61.56;98772.88;6122643;22;102150;-84
2021/09/01 09:46:02;;;;;;;;;5.00;4.00;;;;;18.08;61.63;98769.91;6098771;22;101855;-84
2021/09/01 09:48:34;;;;;;;;;4.00;3.33;;;;;18.08;61.60;98771.81;6124459;22;102233;-84
2021/09/01 09:51:03;;;;;;;;;5.00;4.00;;;;;18.11;61.12;98782.25;6118359;22;104368;-84
2021/09/01 09:53:41;;;;;;;;;5.00;4.00;;;;;18.09;61.36;98768.00;6110958;22;102547;-84
2021/09/01 09:56:14;;;;;;;;;3.00;3.00;;;;;18.10;61.38;98783.38;6081293;22;102132;-84
2021/09/01 09:58:49;;;;;;;;;2.00;2.00;;;;;18.12;62.23;98770.25;6133022;22;102378;-84
2021/09/01 10:01:17;;;;;;;;;6.00;5.33;;;;;18.13;61.74;98780.97;6101830;22;104555;-84
2021/09/01 10:03:45;;;;;;;;;5.00;4.00;;;;;18.14;61.18;98779.06;6106371;22;102361;-84
2021/09/01 10:06:18;;;;;;;;;3.33;3.00;;;;;18.15;61.71;98778.78;6115200;22;102233;-85
2021/09/01 10:08:48;;;;;;;;;4.67;4.33;;;;;18.16;61.32;98796.03;6131696;22;102219;-84
2021/09/01 10:11:16;;;;;;;;;4.00;3.00;;;;;18.16;61.93;98798.78;6110043;22;104096;-84
2021/09/01 10:13:45;;;;;;;;;5.00;3.67;;;;;18.16;61.15;98801.53;6114897;22;102254;-84
2021/09/01 10:16:21;;;;;;;;;6.00;5.00;;;;;18.16;61.65;98801.53;6131796;22;102195;-84
2021/09/01 10:19:07;;;;;;;;;4.00;3.67;;;;;18.16;61.79;98802.34;6142421;22;102091;-84
2021/09/01 10:21:38;;;;;;;;;5.00;5.00;;;;;18.17;61.79;98809.50;6138201;22;108670;-84
2021/09/01 10:24:30;;;;;;;;;4.00;4.00;;;;;18.17;62.14;98809.50;6142958;22;104378;-85
2021/09/01 10:27:04;;;;;;;;;5.33;5.00;;;;;18.16;61.96;98815.22;6006306;22;102127;-84
2021/09/01 10:29:39;;;;;;;;;6.00;6.00;;;;;18.19;61.58;98817.47;6139590;22;102564;-84
2021/09/01 10:32:28;;;;;;;;;7.00;7.00;;;;;18.21;61.89;98815.31;6113180;22;108810;-84
2021/09/01 10:35:16;;;;;;;;;5.00;5.00;;;;;18.21;61.70;98816.13;6042845;22;102228;-84
2021/09/01 10:37:49;;;;;;;;;6.00;6.00;;;;;18.22;62.12;98816.97;6140101;22;102470;-84
2021/09/01 10:40:23;;;;;;;;;5.67;4.33;;;;;18.23;62.30;98813.16;6138740;22;102528;-84
2021/09/01 10:42:56;;;;;;;;;6.67;6.00;;;;;18.24;62.16;98821.13;6136705;22;104228;-84
2021/09/01 10:45:24;;;;;;;;;5.00;5.00;;;;;18.24;62.03;98825.75;6138944;22;102237;-84
2021/09/01 10:47:51;;;;;;;;;6.00;5.67;;;;;18.24;62.15;98821.13;6109571;22;102259;-84
2021/09/01 10:50:30;;;;;;;;;5.33;5.33;;;;;18.26;62.12;98812.66;6108231;22;102337;-85
2021/09/01 10:53:17;;;;;;;;;6.00;5.00;;;;;18.24;61.84;98818.38;6120024;22;104577;-84
2021/09/01 10:56:03;;;;;;;;;6.00;5.00;;;;;18.27;62.00;98814.34;6127478;22;102286;-84
2021/09/01 10:58:31;;;;;;;;;6.00;6.00;;;;;18.27;62.11;98817.06;6129759;22;102283;-84
2021/09/01 11:01:00;;;;;;;;;5.00;5.00;;;;;18.29;62.04;98814.91;6131515;22;102619;-84
2021/09/01 11:03:32;;;;;;;;;5.33;5.00;;;;;18.31;61.71;98822.88;6130661;22;104407;-84
2021/09/01 11:06:18;;;;;;;;;4.33;4.33;;;;;18.32;61.65;98825.38;6122149;22;102271;-84
2021/09/01 11:08:59;;;;;;;;;6.00;5.33;;;;;18.33;61.87;98823.47;6138451;22;102371;-84
2021/09/01 11:11:50;;;;;;;;;4.00;4.00;;;;;18.34;61.81;98828.69;6131712;22;102149;-84
2021/09/01 11:14:40;;;;;;;;;5.33;5.00;;;;;18.35;61.60;98837.75;6083601;22;108804;-84
2021/09/01 11:17:11;;;;;;;;;4.00;4.00;;;;;18.35;61.95;98844.06;6139582;22;102578;-85
2021/09/01 11:19:40;;;;;;;;;4.00;3.67;;;;;18.35;61.58;98838.56;6126802;22;105942;-85
2021/09/01 11:22:14;;;;;;;;;5.67;5.00;;;;;18.37;62.37;98846.56;6124385;22;102603;-84
2021/09/01 11:24:46;;;;;;;;;5.00;5.00;;;;;18.37;62.23;98841.88;6132285;22;108266;-84
2021/09/01 11:27:14;;;;;;;;;5.67;5.00;;;;;18.38;61.79;98838.06;6133385;22;101910;-84
2021/09/01 11:29:42;;;;;;;;;4.00;3.33;;;;;18.40;62.06;98846.06;6133213;22;102327;-84
2021/09/01 11:32:18;;;;;;;;;4.00;4.00;;;;;18.43;62.14;98840.06;6130525;22;102566;-85
2021/09/01 11:34:46;;;;;;;;;5.33;5.00;;;;;18.44;61.57;98841.75;6123985;22;109872;-84
2021/09/01 11:37:16;;;;;;;;;7.00;6.00;;;;;18.45;61.19;98841.50;6117272;22;101836;-85